Time;durP1;ratioP1;P1;durP2;ratioP2;P2;SDS_P1;SDS_P2;PMS_P1;PMS_P2;Temp;Humidity;BMP_temperature;BMP_pressure;BME280_temperature;BME280_humidity;BME280_pressure;Samples;Min_cycle;Max_cycle;Signal;HPM_P1;HPM_P2
2023/10/26 00:02:09;;;;;;;0.70;0.70;;;;;10.00;92376.00;;;;7401053;19;20173;-82
2023/10/26 00:04:37;;;;;;;3.55;0.75;;;;;10.00;92370.00;;;;7398944;19;20137;-82
2023/10/26 00:07:19;;;;;;;0.87;0.40;;;;;9.90;92383.00;;;;7400872;19;20144;-81
2023/10/26 00:09:47;;;;;;;1.67;0.55;;;;;9.90;92370.00;;;;7400019;19;20147;-81
2023/10/26 00:12:23;;;;;;;2.05;0.60;;;;;9.90;92372.00;;;;7400879;19;20144;-79
2023/10/26 00:14:52;;;;;;;1.00;0.50;;;;;9.90;92376.00;;;;7402541;19;20133;-80
2023/10/26 00:17:28;;;;;;;1.63;0.50;;;;;10.00;92375.00;;;;7402372;19;20488;-82
2023/10/26 00:19:55;;;;;;;1.17;0.63;;;;;9.80;92375.00;;;;7402476;19;20602;-85
2023/10/26 00:22:37;;;;;;;0.70;0.70;;;;;9.80;92374.00;;;;7402046;19;20631;-81
2023/10/26 00:25:06;;;;;;;2.17;0.63;;;;;9.80;92372.00;;;;7400613;19;20148;-82
2023/10/26 00:27:40;;;;;;;3.03;0.70;;;;;9.90;92373.00;;;;7399905;19;20132;-79
2023/10/26 00:30:11;;;;;;;1.30;0.65;;;;;9.80;92370.00;;;;7399068;19;20165;-79
2023/10/26 00:32:40;;;;;;;2.03;0.50;;;;;9.80;92368.00;;;;7400391;19;20161;-82
2023/10/26 00:35:34;;;;;;;2.72;0.40;;;;;9.90;92382.00;;;;7398616;19;20172;-81
2023/10/26 00:38:03;;;;;;;1.53;0.70;;;;;9.80;92370.00;;;;7401409;19;20137;-80
2023/10/26 00:40:37;;;;;;;0.60;0.60;;;;;9.80;92363.00;;;;7401488;19;20157;-80
2023/10/26 00:43:05;;;;;;;3.28;0.60;;;;;9.70;92365.00;;;;7400463;19;20506;-81
2023/10/26 00:45:41;;;;;;;2.00;0.63;;;;;9.60;92366.00;;;;7398595;19;20148;-82
2023/10/26 00:48:15;;;;;;;4.82;0.80;;;;;9.50;92364.00;;;;7400111;19;20140;-80
2023/10/26 00:50:50;;;;;;;1.48;0.88;;;;;9.40;92348.00;;;;7399234;19;20520;-82
2023/10/26 00:53:25;;;;;;;0.73;0.50;;;;;9.40;92361.00;;;;7400202;19;20220;-80
2023/10/26 00:56:03;;;;;;;1.87;1.00;;;;;9.50;92365.00;;;;7399909;19;20608;-81
2023/10/26 00:58:31;;;;;;;1.55;0.75;;;;;9.60;92364.00;;;;7400231;19;20616;-81
2023/10/26 01:01:05;;;;;;;1.67;0.60;;;;;9.50;92370.00;;;;7399536;19;20140;-80
2023/10/26 01:03:34;;;;;;;4.47;0.70;;;;;9.60;92374.00;;;;7397375;19;20162;-80
2023/10/26 01:06:23;;;;;;;1.88;0.60;;;;;9.60;92375.00;;;;7396964;19;20178;-81
2023/10/26 01:08:59;;;;;;;1.65;0.70;;;;;9.60;92383.00;;;;7397133;19;20178;-83
2023/10/26 01:11:33;;;;;;;1.00;0.52;;;;;9.60;92384.00;;;;7399151;19;20153;-80
2023/10/26 01:14:07;;;;;;;0.85;0.73;;;;;9.50;92387.00;;;;7398671;19;20186;-81
2023/10/26 01:16:44;;;;;;;2.33;0.68;;;;;9.50;92378.00;;;;7398278;19;20502;-81
2023/10/26 01:19:35;;;;;;;1.33;0.77;;;;;9.40;92387.00;;;;7399813;19;20140;-81
2023/10/26 01:22:27;;;;;;;1.13;0.55;;;;;9.30;92377.00;;;;7398395;19;20482;-80
2023/10/26 01:24:55;;;;;;;0.80;0.53;;;;;9.30;92387.00;;;;7399511;19;20129;-80
2023/10/26 01:27:33;;;;;;;1.63;0.70;;;;;9.30;92395.00;;;;7397700;19;20136;-81
2023/10/26 01:30:03;;;;;;;3.10;0.80;;;;;9.30;92382.00;;;;7397973;19;20148;-81
2023/10/26 01:32:43;;;;;;;1.23;0.80;;;;;9.40;92378.00;;;;7398762;19;20606;-80
2023/10/26 01:35:11;;;;;;;0.90;0.60;;;;;9.40;92378.00;;;;7399834;19;20469;-79
2023/10/26 01:37:46;;;;;;;1.17;0.50;;;;;9.30;92388.00;;;;7397927;19;20612;-82
2023/10/26 01:40:15;;;;;;;2.30;0.73;;;;;9.20;92389.00;;;;7400274;19;20165;-83
2023/10/26 01:42:52;;;;;;;2.93;0.80;;;;;9.10;92384.00;;;;7398406;19;20143;-81
2023/10/26 01:45:21;;;;;;;2.10;0.60;;;;;9.00;92375.00;;;;7398810;19;20489;-83
2023/10/26 01:47:58;;;;;;;1.30;0.77;;;;;8.90;92370.00;;;;7397941;19;20633;-84
2023/10/26 01:50:28;;;;;;;0.50;0.40;;;;;8.90;92385.00;;;;7399046;19;20161;-83
2023/10/26 01:53:06;;;;;;;3.50;0.80;;;;;8.90;92389.00;;;;7397236;19;20144;-77
2023/10/26 01:55:41;;;;;;;1.17;0.70;;;;;8.90;92388.00;;;;7397370;19;20212;-79
2023/10/26 01:58:15;;;;;;;0.70;0.60;;;;;8.80;92371.00;;;;7399064;19;20580;-79
2023/10/26 02:00:43;;;;;;;1.97;0.80;;;;;8.70;92372.00;;;;7396847;19;20597;-78
2023/10/26 02:03:18;;;;;;;2.83;1.03;;;;;8.70;92384.00;;;;7397113;19;20502;-79
2023/10/26 02:05:59;;;;;;;2.17;0.80;;;;;8.50;92371.00;;;;7396540;19;20140;-77
2023/10/26 02:08:39;;;;;;;0.20;0.20;;;;;8.60;92371.00;;;;7398168;19;20200;-77
2023/10/26 02:11:08;;;;;;;1.10;0.70;;;;;8.50;92368.00;;;;7398241;19;20133;-77
2023/10/26 02:13:43;;;;;;;0.90;0.63;;;;;8.60;92369.00;;;;7394812;19;20151;-79
2023/10/26 02:16:13;;;;;;;0.50;0.50;;;;;8.30;92376.00;;;;7397090;19;20141;-79
2023/10/26 02:18:47;;;;;;;1.53;0.57;;;;;8.50;92361.00;;;;7396300;19;20175;-82
2023/10/26 02:21:16;;;;;;;0.90;0.73;;;;;8.50;92365.00;;;;7396725;19;20158;-80
2023/10/26 02:23:51;;;;;;;1.60;0.77;;;;;8.50;92373.00;;;;7396036;19;20124;-82
2023/10/26 02:26:25;;;;;;;0.70;0.70;;;;;8.40;92371.00;;;;7398000;19;20140;-82
2023/10/26 02:28:54;;;;;;;1.30;0.50;;;;;8.30;92363.00;;;;7394709;19;20160;-83
2023/10/26 02:31:28;;;;;;;2.20;0.70;;;;;8.20;92375.00;;;;7397109;19;20140;-82
2023/10/26 02:33:56;;;;;;;2.73;0.97;;;;;8.30;92369.00;;;;7398042;19;20137;-82
2023/10/26 02:36:25;;;;;;;1.13;0.53;;;;;8.40;92361.00;;;;7397887;19;20136;-82
2023/10/26 02:38:59;;;;;;;2.30;0.60;;;;;8.40;92363.00;;;;7396437;19;20148;-84
2023/10/26 02:41:28;;;;;;;0.53;0.50;;;;;8.30;92367.00;;;;7395922;19;20201;-84
2023/10/26 02:43:56;;;;;;;1.20;0.43;;;;;8.40;92352.00;;;;7395936;19;20157;-80
2023/10/26 02:46:31;;;;;;;0.97;0.60;;;;;8.40;92363.00;;;;7395572;19;20216;-82
2023/10/26 02:49:06;;;;;;;0.73;0.50;;;;;8.20;92359.00;;;;7394674;19;20148;-82
2023/10/26 02:51:42;;;;;;;1.80;0.70;;;;;8.10;92349.00;;;;7395988;19;20136;-82
2023/10/26 02:54:11;;;;;;;0.50;0.40;;;;;8.20;92361.00;;;;7395353;19;20635;-82
2023/10/26 02:56:40;;;;;;;0.73;0.57;;;;;8.20;92367.00;;;;7395469;19;20608;-83
2023/10/26 02:59:14;;;;;;;1.93;0.70;;;;;8.30;92366.00;;;;7395474;19;20195;-83
2023/10/26 03:01:49;;;;;;;0.80;0.40;;;;;8.30;92360.00;;;;7395035;19;20132;-83
2023/10/26 03:04:17;;;;;;;0.60;0.40;;;;;8.30;92362.00;;;;7393909;19;20168;-83
2023/10/26 03:07:05;;;;;;;1.87;0.30;;;;;8.30;92365.00;;;;7395752;19;20208;-83
2023/10/26 03:09:40;;;;;;;0.47;0.33;;;;;8.10;92362.00;;;;7392995;19;20153;-84
2023/10/26 03:12:20;;;;;;;2.33;0.67;;;;;8.30;92361.00;;;;7395536;19;20613;-81
2023/10/26 03:14:48;;;;;;;0.50;0.50;;;;;8.10;92353.00;;;;7396961;19;20144;-83
2023/10/26 03:17:23;;;;;;;0.93;0.47;;;;;7.80;92360.00;;;;7394958;19;20144;-83
2023/10/26 03:19:57;;;;;;;0.63;0.50;;;;;7.70;92358.00;;;;7397055;19;20135;-82
2023/10/26 03:22:25;;;;;;;2.20;0.70;;;;;7.70;92347.00;;;;7395365;19;20221;-83
2023/10/26 03:25:00;;;;;;;1.30;0.40;;;;;7.60;92353.00;;;;7401579;19;20136;-82
2023/10/26 03:27:30;;;;;;;2.43;0.80;;;;;7.80;92358.00;;;;7403102;19;20187;-82
2023/10/26 03:30:07;;;;;;;1.33;0.53;;;;;7.80;92364.00;;;;7400471;19;20144;-84
2023/10/26 03:32:43;;;;;;;0.47;0.47;;;;;8.00;92363.00;;;;7402221;19;20152;-83
2023/10/26 03:35:19;;;;;;;2.10;0.53;;;;;7.90;92364.00;;;;7404602;19;20153;-84
2023/10/26 03:37:53;;;;;;;0.43;0.40;;;;;7.90;92363.00;;;;7402167;19;20155;-83
2023/10/26 03:40:22;;;;;;;1.33;0.43;;;;;7.90;92366.00;;;;7404138;19;20143;-84
2023/10/26 03:42:51;;;;;;;1.17;0.40;;;;;7.80;92370.00;;;;7401407;19;20144;-83
2023/10/26 03:45:28;;;;;;;2.37;0.73;;;;;7.60;92367.00;;;;7402329;19;20153;-85
2023/10/26 03:47:56;;;;;;;2.77;0.60;;;;;7.40;92366.00;;;;7402297;19;20196;-83
2023/10/26 03:50:32;;;;;;;1.00;0.50;;;;;7.30;92375.00;;;;7397786;19;20137;-83
2023/10/26 03:53:01;;;;;;;1.07;0.40;;;;;7.30;92375.00;;;;7401840;19;20168;-84
2023/10/26 03:55:36;;;;;;;0.33;0.33;;;;;7.20;92372.00;;;;7401966;19;20129;-86
2023/10/26 03:58:05;;;;;;;2.50;0.47;;;;;7.20;92375.00;;;;7403207;19;20525;-85
2023/10/26 04:00:36;;;;;;;2.97;0.53;;;;;7.20;92373.00;;;;7401095;19;20156;-85
2023/10/26 04:03:11;;;;;;;0.53;0.30;;;;;7.20;92366.00;;;;7400900;19;20168;-84
2023/10/26 04:05:52;;;;;;;1.53;0.50;;;;;7.20;92369.00;;;;7401119;19;20133;-84
2023/10/26 04:08:28;;;;;;;1.93;0.60;;;;;7.30;92363.00;;;;7401051;19;20637;-85
2023/10/26 04:10:58;;;;;;;0.83;0.50;;;;;7.30;92360.00;;;;7401959;19;20149;-85
2023/10/26 04:13:36;;;;;;;2.63;0.50;;;;;7.20;92361.00;;;;7402534;19;20132;-85
2023/10/26 04:16:11;;;;;;;1.80;0.50;;;;;7.20;92359.00;;;;7399939;19;20211;-84
2023/10/26 04:18:40;;;;;;;3.87;0.70;;;;;7.30;92356.00;;;;7402735;19;20137;-85
2023/10/26 04:21:15;;;;;;;0.50;0.40;;;;;7.20;92365.00;;;;7403034;19;20211;-86
2023/10/26 04:23:51;;;;;;;8.87;0.70;;;;;7.10;92367.00;;;;7401787;19;20133;-85
2023/10/26 04:26:27;;;;;;;0.47;0.47;;;;;7.00;92362.00;;;;7401377;19;20144;-87
2023/10/26 04:28:55;;;;;;;1.23;0.70;;;;;6.90;92363.00;;;;7400732;19;20220;-87
2023/10/26 04:31:34;;;;;;;0.93;0.30;;;;;6.90;92362.00;;;;7402625;19;20147;-85
2023/10/26 04:34:09;;;;;;;1.40;0.50;;;;;6.80;92356.00;;;;7400888;19;20632;-84
2023/10/26 04:36:45;;;;;;;1.60;0.60;;;;;7.10;92364.00;;;;7400539;19;20576;-85
2023/10/26 04:39:21;;;;;;;0.37;0.37;;;;;7.00;92358.00;;;;7400082;19;20515;-85
2023/10/26 04:41:55;;;;;;;1.00;0.60;;;;;7.10;92362.00;;;;7400332;19;20153;-83
2023/10/26 04:44:32;;;;;;;1.60;0.60;;;;;7.10;92362.00;;;;7400202;19;20179;-85
2023/10/26 04:47:01;;;;;;;1.33;0.83;;;;;7.10;92347.00;;;;7402163;19;20161;-86
2023/10/26 04:49:35;;;;;;;1.03;0.93;;;;;7.10;92347.00;;;;7401178;19;20145;-85
2023/10/26 04:52:14;;;;;;;0.60;0.50;;;;;7.10;92352.00;;;;7400678;19;20146;-87
2023/10/26 04:54:42;;;;;;;0.60;0.60;;;;;7.10;92351.00;;;;7400293;19;20133;-85
2023/10/26 04:57:17;;;;;;;1.33;0.60;;;;;7.10;92349.00;;;;7400082;19;20148;-85
2023/10/26 04:59:45;;;;;;;0.50;0.43;;;;;7.20;92337.00;;;;7400704;19;20170;-81
2023/10/26 05:02:13;;;;;;;3.47;0.57;;;;;7.20;92336.00;;;;7388085;19;20148;-82
2023/10/26 05:04:48;;;;;;;1.03;0.77;;;;;7.20;92344.00;;;;7389817;19;20141;-81
2023/10/26 05:07:24;;;;;;;1.47;0.60;;;;;7.20;92336.00;;;;7389896;19;20172;-85
2023/10/26 05:10:16;;;;;;;1.30;0.50;;;;;7.20;92334.00;;;;7392083;19;20158;-83
2023/10/26 05:12:50;;;;;;;0.83;0.63;;;;;7.30;92337.00;;;;7390221;19;20243;-83
2023/10/26 05:15:25;;;;;;;0.70;0.70;;;;;7.40;92335.00;;;;7389024;19;20584;-83
2023/10/26 05:17:54;;;;;;;0.87;0.80;;;;;7.60;92332.00;;;;7391167;19;20616;-83
2023/10/26 05:20:30;;;;;;;4.83;1.30;;;;;7.70;92319.00;;;;7390824;19;20498;-82
2023/10/26 05:23:02;;;;;;;0.50;0.50;;;;;7.70;92336.00;;;;7390860;19;20139;-84
2023/10/26 05:25:37;;;;;;;3.30;0.77;;;;;7.80;92327.00;;;;7390122;19;20129;-84
2023/10/26 05:28:12;;;;;;;0.80;0.80;;;;;7.80;92317.00;;;;7389589;19;20494;-84
2023/10/26 05:30:46;;;;;;;1.00;0.70;;;;;7.80;92315.00;;;;7388133;19;20153;-82
2023/10/26 05:33:22;;;;;;;1.20;0.80;;;;;7.80;92309.00;;;;7390368;19;20139;-84
2023/10/26 05:35:59;;;;;;;0.83;0.60;;;;;7.80;92314.00;;;;7388881;19;20580;-84
2023/10/26 05:38:33;;;;;;;2.73;0.90;;;;;7.80;92314.00;;;;7390463;19;20128;-85
2023/10/26 05:41:07;;;;;;;1.80;1.10;;;;;7.90;92316.00;;;;7388197;19;20152;-82
2023/10/26 05:43:35;;;;;;;3.23;0.83;;;;;7.90;92303.00;;;;7389655;19;20460;-83
2023/10/26 05:46:12;;;;;;;3.10;0.93;;;;;7.80;92308.00;;;;7388688;19;20515;-83
2023/10/26 05:48:46;;;;;;;4.67;1.30;;;;;7.70;92304.00;;;;7386171;19;20614;-82
2023/10/26 05:51:22;;;;;;;1.73;0.90;;;;;7.70;92292.00;;;;7388474;19;20147;-82
2023/10/26 05:54:02;;;;;;;2.17;1.00;;;;;7.60;92291.00;;;;7388212;19;20177;-82
2023/10/26 05:56:46;;;;;;;2.50;1.00;;;;;7.50;92299.00;;;;7387560;19;20187;-82
2023/10/26 05:59:21;;;;;;;3.73;1.10;;;;;7.50;92304.00;;;;7389267;19;20550;-80
2023/10/26 06:01:49;;;;;;;3.10;1.40;;;;;7.50;92311.00;;;;7389129;19;20133;-81
2023/10/26 06:04:23;;;;;;;4.07;0.87;;;;;7.40;92304.00;;;;7386757;19;20178;-83
2023/10/26 06:06:51;;;;;;;4.00;1.40;;;;;7.50;92307.00;;;;7388719;19;20152;-83
2023/10/26 06:09:32;;;;;;;1.17;0.93;;;;;7.40;92300.00;;;;7386343;19;20208;-83
2023/10/26 06:12:07;;;;;;;2.07;1.20;;;;;7.40;92300.00;;;;7384159;19;20167;-81
2023/10/26 06:14:43;;;;;;;1.27;0.87;;;;;7.40;92298.00;;;;7387333;19;20131;-82
2023/10/26 06:17:11;;;;;;;1.37;1.10;;;;;7.40;92299.00;;;;7387249;19;21078;-80
2023/10/26 06:19:46;;;;;;;1.10;0.90;;;;;7.50;92300.00;;;;7387979;19;20596;-79
2023/10/26 06:22:14;;;;;;;5.00;1.10;;;;;7.50;92293.00;;;;7386953;19;20157;-79
2023/10/26 06:24:52;;;;;;;1.53;1.17;;;;;7.60;92301.00;;;;7386618;19;20161;-82
2023/10/26 06:27:20;;;;;;;5.53;1.40;;;;;7.60;92304.00;;;;7388049;19;20137;-80
2023/10/26 06:29:56;;;;;;;3.03;1.10;;;;;7.60;92298.00;;;;7385680;19;20626;-79
2023/10/26 06:32:30;;;;;;;2.77;0.90;;;;;7.60;92287.00;;;;7387500;19;20596;-75
2023/10/26 06:35:04;;;;;;;4.50;1.70;;;;;7.60;92294.00;;;;7388702;19;20136;-80
2023/10/26 06:37:33;;;;;;;4.13;1.33;;;;;7.70;92312.00;;;;7386148;19;20502;-81
2023/10/26 06:40:08;;;;;;;3.97;1.33;;;;;7.80;92314.00;;;;7388032;19;20133;-81
2023/10/26 06:42:43;;;;;;;5.67;0.90;;;;;7.80;92316.00;;;;7386680;19;20613;-81
2023/10/26 06:45:17;;;;;;;3.20;1.27;;;;;7.90;92307.00;;;;7386615;19;20177;-80
2023/10/26 06:47:53;;;;;;;3.33;1.50;;;;;8.00;92319.00;;;;7388255;19;20133;-80
2023/10/26 06:50:23;;;;;;;1.00;0.90;;;;;8.00;92312.00;;;;7388534;19;20622;-80
2023/10/26 06:52:57;;;;;;;2.57;1.27;;;;;8.10;92305.00;;;;7388160;19;20179;-80
2023/10/26 06:55:25;;;;;;;1.40;1.27;;;;;8.10;92308.00;;;;7386660;19;20141;-81
2023/10/26 06:57:57;;;;;;;3.83;1.30;;;;;8.20;92312.00;;;;7386472;19;20216;-80
2023/10/26 07:00:35;;;;;;;1.97;1.20;;;;;8.30;92310.00;;;;7393141;19;20596;-80
2023/10/26 07:03:05;;;;;;;4.97;1.83;;;;;8.30;92309.00;;;;7391112;19;20191;-81
2023/10/26 07:05:40;;;;;;;3.60;1.20;;;;;8.30;92304.00;;;;7392696;19;20156;-80
2023/10/26 07:08:21;;;;;;;1.30;1.20;;;;;8.40;92309.00;;;;7392690;19;20176;-81
2023/10/26 07:10:55;;;;;;;3.03;1.10;;;;;8.50;92305.00;;;;7394236;19;20150;-81
2023/10/26 07:13:30;;;;;;;1.20;1.10;;;;;8.60;92298.00;;;;7393117;19;20144;-80
2023/10/26 07:16:00;;;;;;;3.37;1.50;;;;;8.70;92301.00;;;;7391730;19;20589;-80
2023/10/26 07:18:34;;;;;;;2.50;1.23;;;;;8.70;92301.00;;;;7392686;19;20612;-81
2023/10/26 07:21:08;;;;;;;1.97;1.47;;;;;8.70;92306.00;;;;7391759;19;20132;-80
2023/10/26 07:23:45;;;;;;;2.23;1.40;;;;;8.80;92311.00;;;;7393521;19;20614;-81
2023/10/26 07:26:19;;;;;;;2.90;1.20;;;;;8.70;92305.00;;;;7393020;19;20136;-85
2023/10/26 07:28:47;;;;;;;2.65;1.45;;;;;8.70;92298.00;;;;7386655;19;20153;-82
2023/10/26 07:31:22;;;;;;;4.17;1.23;;;;;8.70;92295.00;;;;7391771;19;20663;-81
2023/10/26 07:33:56;;;;;;;4.20;1.03;;;;;8.70;92290.00;;;;7391334;19;20219;-84
2023/10/26 07:36:31;;;;;;;2.70;1.30;;;;;8.60;92298.00;;;;7391242;19;20132;-85
2023/10/26 07:39:02;;;;;;;1.70;1.10;;;;;8.70;92301.00;;;;7389996;19;20170;-84
2023/10/26 07:41:56;;;;;;;5.17;1.17;;;;;8.70;92303.00;;;;7389670;19;20159;-84
2023/10/26 07:44:40;;;;;;;1.97;1.13;;;;;8.80;92292.00;;;;7391149;19;20156;-83
2023/10/26 07:47:15;;;;;;;1.93;1.27;;;;;8.90;92289.00;;;;7390353;19;20149;-82
2023/10/26 07:49:45;;;;;;;2.70;1.20;;;;;9.00;92294.00;;;;7391571;19;20146;-84
2023/10/26 07:52:19;;;;;;;2.93;1.30;;;;;9.10;92294.00;;;;7390059;19;20143;-83
2023/10/26 07:54:56;;;;;;;2.13;1.40;;;;;9.10;92281.00;;;;7390353;19;20604;-82
2023/10/26 07:57:25;;;;;;;4.47;1.50;;;;;9.30;92284.00;;;;7390026;19;20727;-81
2023/10/26 08:00:01;;;;;;;1.80;1.30;;;;;9.40;92280.00;;;;7391675;19;20152;-82
2023/10/26 08:02:35;;;;;;;2.45;1.45;;;;;9.40;92282.00;;;;7390151;19;20129;-85
2023/10/26 08:05:11;;;;;;;1.63;1.30;;;;;9.60;92292.00;;;;7391794;19;20213;-84
2023/10/26 08:07:53;;;;;;;4.65;1.50;;;;;9.60;92249.00;;;;7390119;19;20509;-84
2023/10/26 08:10:20;;;;;;;1.90;1.20;;;;;9.60;92281.00;;;;7388618;19;20136;-84
2023/10/26 08:12:54;;;;;;;1.27;1.00;;;;;9.60;92278.00;;;;7390930;19;20133;-85
2023/10/26 08:15:28;;;;;;;3.97;1.30;;;;;9.70;92263.00;;;;7390965;19;20139;-85
2023/10/26 08:18:25;;;;;;;1.57;1.20;;;;;9.70;92279.00;;;;7390316;19;20609;-84
2023/10/26 08:20:53;;;;;;;2.45;1.08;;;;;9.60;92277.00;;;;7390202;19;20508;-83
2023/10/26 08:23:29;;;;;;;3.07;1.30;;;;;9.70;92274.00;;;;7390741;19;20228;-84
2023/10/26 08:26:08;;;;;;;1.38;1.10;;;;;9.80;92273.00;;;;7391054;19;20496;-85
2023/10/26 08:28:36;;;;;;;3.17;1.20;;;;;9.80;92267.00;;;;7389142;19;20509;-81
2023/10/26 08:31:10;;;;;;;1.88;1.15;;;;;9.80;92273.00;;;;7391890;19;20132;-79
2023/10/26 08:33:38;;;;;;;2.08;1.10;;;;;9.90;92265.00;;;;7389394;19;20156;-82
2023/10/26 08:36:06;;;;;;;1.50;1.13;;;;;10.10;92268.00;;;;7389332;19;20137;-84
2023/10/26 08:38:40;;;;;;;1.60;1.00;;;;;9.90;92271.00;;;;7390474;19;20153;-82
2023/10/26 08:41:13;;;;;;;3.05;0.93;;;;;9.70;92292.00;;;;7390746;19;20583;-81
2023/10/26 08:43:47;;;;;;;1.07;0.97;;;;;9.80;92299.00;;;;7388154;19;20588;-82
2023/10/26 08:46:17;;;;;;;5.03;1.10;;;;;9.70;92295.00;;;;7390570;19;20128;-83
2023/10/26 08:48:56;;;;;;;5.43;0.90;;;;;9.80;92291.00;;;;7387777;19;20152;-80
2023/10/26 08:51:30;;;;;;;1.30;0.87;;;;;9.70;92296.00;;;;7388784;19;20204;-81
2023/10/26 08:54:00;;;;;;;1.15;0.77;;;;;9.80;92285.00;;;;7387304;19;20513;-82
2023/10/26 08:56:34;;;;;;;4.25;1.00;;;;;9.90;92284.00;;;;7387377;19;20148;-83
2023/10/26 08:59:08;;;;;;;2.67;0.80;;;;;9.90;92280.00;;;;7387097;19;20171;-82
2023/10/26 09:01:49;;;;;;;2.63;0.80;;;;;9.80;92281.00;;;;7387304;19;20128;-81
2023/10/26 09:04:23;;;;;;;0.90;0.90;;;;;9.80;92281.00;;;;7385870;19;20184;-80
2023/10/26 09:07:11;;;;;;;1.85;0.55;;;;;9.80;92294.00;;;;7386013;19;20246;-82
2023/10/26 09:09:45;;;;;;;1.38;0.70;;;;;9.80;92289.00;;;;7386824;19;20153;-81
2023/10/26 09:12:19;;;;;;;0.70;0.70;;;;;9.80;92301.00;;;;7387259;19;20125;-81
2023/10/26 09:15:05;;;;;;;0.75;0.73;;;;;9.70;92309.00;;;;7386177;19;20144;-82
2023/10/26 09:17:40;;;;;;;3.85;0.85;;;;;9.60;92313.00;;;;7388489;19;20153;-81
2023/10/26 09:20:21;;;;;;;1.02;0.80;;;;;9.60;92316.00;;;;7385783;19;20144;-82
2023/10/26 09:22:58;;;;;;;0.70;0.70;;;;;9.50;92309.00;;;;7386717;19;20157;-80
2023/10/26 09:25:33;;;;;;;1.23;0.90;;;;;9.50;92299.00;;;;7386351;19;20800;-82
2023/10/26 09:28:19;;;;;;;0.70;0.70;;;;;9.50;92301.00;;;;7385935;19;20152;-80
2023/10/26 09:31:07;;;;;;;1.02;0.95;;;;;9.40;92306.00;;;;7385454;19;20156;-84
2023/10/26 09:33:41;;;;;;;0.60;0.60;;;;;9.50;92309.00;;;;7386150;19;20148;-85
2023/10/26 09:36:17;;;;;;;1.98;0.70;;;;;9.50;92317.00;;;;7386651;19;20625;-84
2023/10/26 09:38:52;;;;;;;0.70;0.57;;;;;9.60;92304.00;;;;7385678;19;20448;-85
2023/10/26 09:41:20;;;;;;;0.50;0.50;;;;;9.80;92301.00;;;;7384911;19;20149;-86
2023/10/26 09:43:56;;;;;;;0.60;0.60;;;;;9.90;92313.00;;;;7385934;19;20155;-82
2023/10/26 09:46:24;;;;;;;0.70;0.70;;;;;9.80;92323.00;;;;7388810;19;20464;-80
2023/10/26 09:49:00;;;;;;;1.85;0.60;;;;;9.90;92325.00;;;;7387985;19;20133;-81
2023/10/26 09:51:29;;;;;;;0.60;0.60;;;;;9.90;92339.00;;;;7386520;19;20573;-81
2023/10/26 09:53:59;;;;;;;1.20;0.70;;;;;9.90;92334.00;;;;7386565;19;20208;-81
2023/10/26 09:56:35;;;;;;;0.52;0.50;;;;;9.90;92324.00;;;;7389119;19;20132;-81
2023/10/26 09:59:10;;;;;;;0.55;0.50;;;;;10.10;92306.00;;;;7387859;19;20141;-81
2023/10/26 10:01:45;;;;;;;0.47;0.32;;;;;10.30;92319.00;;;;7385703;19;20204;-80
2023/10/26 10:04:13;;;;;;;0.47;0.47;;;;;10.30;92325.00;;;;7386709;19;20160;-81
2023/10/26 10:06:51;;;;;;;1.67;0.50;;;;;10.40;92328.00;;;;7385681;19;20639;-81
2023/10/26 10:09:32;;;;;;;0.38;0.38;;;;;10.50;92332.00;;;;7384939;19;20600;-81
2023/10/26 10:12:16;;;;;;;0.50;0.40;;;;;10.40;92327.00;;;;7386651;19;20132;-81
2023/10/26 10:14:54;;;;;;;0.65;0.40;;;;;10.40;92323.00;;;;7386780;19;20156;-81
2023/10/26 10:17:45;;;;;;;0.40;0.40;;;;;10.70;92319.00;;;;7383946;19;20209;-81
2023/10/26 10:20:19;;;;;;;3.20;2.90;;;;;10.70;92328.00;;;;7387799;19;20145;-80
2023/10/26 10:22:56;;;;;;;0.40;0.40;;;;;10.80;92331.00;;;;7385834;19;20164;-81
2023/10/26 10:25:50;;;;;;;0.20;0.20;;;;;10.90;92323.00;;;;7385486;19;20136;-82
2023/10/26 10:28:40;;;;;;;0.65;0.63;;;;;10.90;92327.00;;;;7385992;19;20174;-79
2023/10/26 10:31:24;;;;;;;0.65;0.65;;;;;11.00;92333.00;;;;7386110;19;20170;-82
2023/10/26 10:34:03;;;;;;;0.30;0.30;;;;;10.80;92331.00;;;;7383900;19;20140;-79
2023/10/26 10:37:07;;;;;;;0.20;0.20;;;;;10.80;92332.00;;;;7387029;19;20161;-81
2023/10/26 10:40:09;;;;;;;0.10;0.10;;;;;10.90;92331.00;;;;7385453;19;20151;-80
2023/10/26 10:42:49;;;;;;;0.20;0.20;;;;;11.30;92315.00;;;;7386781;19;20132;-81
2023/10/26 10:45:23;;;;;;;0.55;0.55;;;;;11.50;92326.00;;;;7385376;19;20592;-82
2023/10/26 10:48:07;;;;;;;0.15;0.15;;;;;11.40;92324.00;;;;7386413;19;20665;-81
2023/10/26 10:50:41;;;;;;;0.10;0.10;;;;;11.20;92321.00;;;;7387089;19;20584;-81
2023/10/26 10:53:09;;;;;;;0.10;0.10;;;;;11.30;92325.00;;;;7384869;19;20224;-80
2023/10/26 10:55:44;;;;;;;0.90;0.90;;;;;11.10;92323.00;;;;7384615;19;20200;-85
2023/10/26 10:58:19;;;;;;;0.10;0.10;;;;;11.20;92318.00;;;;7385771;19;20165;-83
2023/10/26 11:00:53;;;;;;;0.00;0.00;;;;;10.80;92320.00;;;;7384066;19;20125;-84
2023/10/26 11:03:27;;;;;;;2.05;1.13;;;;;10.90;92305.00;;;;7385231;19;20636;-87
2023/10/26 11:06:01;;;;;;;0.43;0.30;;;;;11.10;92300.00;;;;7385383;19;20153;-85
2023/10/26 11:08:43;;;;;;;0.20;0.20;;;;;11.40;92259.00;;;;7386438;19;20159;-87
2023/10/26 11:11:27;;;;;;;0.65;0.43;;;;;11.80;92279.00;;;;7383929;19;21086;-84
2023/10/26 11:14:10;;;;;;;0.30;0.15;;;;;12.50;92276.00;;;;7385592;19;20648;-85
2023/10/26 11:16:44;;;;;;;0.10;0.00;;;;;12.10;92281.00;;;;7384459;19;20149;-86
2023/10/26 11:19:20;;;;;;;0.30;0.20;;;;;12.50;92282.00;;;;7385412;19;20618;-85
2023/10/26 11:21:58;;;;;;;0.20;0.20;;;;;12.60;92279.00;;;;7385398;19;20152;-85
2023/10/26 11:24:32;;;;;;;1.08;0.28;;;;;12.70;92269.00;;;;7385006;19;20144;-81
2023/10/26 11:27:10;;;;;;;2.28;0.70;;;;;12.50;92254.00;;;;7383802;19;20208;-79
2023/10/26 11:29:45;;;;;;;3.28;0.70;;;;;12.80;92260.00;;;;7384837;19;20186;-84
2023/10/26 11:32:21;;;;;;;3.80;0.90;;;;;13.10;92255.00;;;;7385686;19;20162;-84
2023/10/26 11:35:16;;;;;;;6.00;1.20;;;;;13.50;92262.00;;;;7382931;19;20174;-84
2023/10/26 11:37:46;;;;;;;4.45;0.88;;;;;13.60;92271.00;;;;7385035;19;20140;-81
2023/10/26 11:40:29;;;;;;;4.55;1.20;;;;;13.60;92278.00;;;;7382830;19;20132;-80
2023/10/26 11:43:04;;;;;;;21.40;11.63;;;;;13.50;92262.00;;;;7383942;19;20153;-82
2023/10/26 11:45:48;;;;;;;6.90;2.50;;;;;13.40;92256.00;;;;7386193;19;20133;-81
2023/10/26 11:48:30;;;;;;;21.27;8.43;;;;;13.40;92261.00;;;;7390723;19;20184;-82
2023/10/26 11:51:06;;;;;;;21.52;9.75;;;;;13.60;92238.00;;;;7389937;19;20150;-82
2023/10/26 11:53:41;;;;;;;14.65;5.75;;;;;13.70;92248.00;;;;7387810;19;20145;-80
2023/10/26 11:56:15;;;;;;;7.00;3.08;;;;;13.60;92237.00;;;;7383683;19;20143;-84
2023/10/26 11:58:50;;;;;;;6.47;2.95;;;;;14.50;92248.00;;;;7388764;19;20152;-82
2023/10/26 12:01:24;;;;;;;18.27;9.68;;;;;14.50;92235.00;;;;7388525;19;20164;-79
2023/10/26 12:03:52;;;;;;;5.65;1.38;;;;;14.10;92236.00;;;;7389197;19;20184;-77
2023/10/26 12:06:42;;;;;;;5.50;1.58;;;;;14.30;92239.00;;;;7390932;19;20128;-78
2023/10/26 12:09:17;;;;;;;3.63;1.42;;;;;14.40;92232.00;;;;7390130;19;20641;-79
2023/10/26 12:11:51;;;;;;;3.70;1.52;;;;;14.30;92237.00;;;;7390133;19;20245;-79
2023/10/26 12:14:33;;;;;;;5.95;1.63;;;;;14.70;92229.00;;;;7388379;19;20180;-79
2023/10/26 12:17:08;;;;;;;3.13;1.60;;;;;15.40;92221.00;;;;7386840;19;20149;-79
2023/10/26 12:19:41;;;;;;;2.50;1.40;;;;;16.50;92225.00;;;;7390159;19;20494;-78
2023/10/26 12:22:10;;;;;;;4.07;1.50;;;;;16.60;92210.00;;;;7392249;19;20145;-77
2023/10/26 12:24:44;;;;;;;2.03;1.48;;;;;16.40;92214.00;;;;7388551;19;20128;-76
2023/10/26 12:27:16;;;;;;;5.07;1.35;;;;;16.30;92205.00;;;;7389762;19;20588;-77
2023/10/26 12:29:51;;;;;;;3.60;1.20;;;;;16.60;92214.00;;;;7390146;19;20598;-76
2023/10/26 12:32:19;;;;;;;5.20;1.52;;;;;17.00;92219.00;;;;7389772;19;20612;-76
2023/10/26 12:34:54;;;;;;;5.50;1.80;;;;;16.90;92227.00;;;;7388114;19;20136;-76
2023/10/26 12:37:28;;;;;;;4.07;1.48;;;;;16.40;92221.00;;;;7388498;19;20141;-77
2023/10/26 12:40:07;;;;;;;5.40;1.58;;;;;16.50;92231.00;;;;7390194;19;20200;-76
2023/10/26 12:42:43;;;;;;;6.63;1.60;;;;;16.40;92223.00;;;;7389500;19;20588;-76
2023/10/26 12:45:18;;;;;;;3.75;1.40;;;;;16.30;92241.00;;;;7388285;19;20614;-77
2023/10/26 12:47:53;;;;;;;6.50;1.50;;;;;15.60;92247.00;;;;7387300;19;20133;-77
2023/10/26 12:50:21;;;;;;;5.78;1.90;;;;;15.20;92234.00;;;;7387483;19;20133;-78
2023/10/26 12:52:48;;;;;;;6.88;1.58;;;;;14.90;92241.00;;;;7388239;19;20238;-77
2023/10/26 12:59:01;;;;;;;5.57;1.50;;;;;14.40;92240.00;;;;7388394;19;20149;-77
2023/10/26 13:01:36;;;;;;;8.45;2.13;;;;;14.20;92234.00;;;;7388501;19;20125;-76
2023/10/26 13:04:04;;;;;;;6.78;1.80;;;;;13.90;92247.00;;;;7385081;19;20184;-78
2023/10/26 13:06:38;;;;;;;48.47;23.58;;;;;13.90;92246.00;;;;7387762;19;20145;-78